createdAt,value
2023-02-16T00:04:31.338Z,71.65
2023-02-16T00:09:54.794Z,71.59
2023-02-16T00:14:57.422Z,71.71
2023-02-16T00:20:00.336Z,71.88
2023-02-16T00:25:02.530Z,71.80
2023-02-16T00:30:21.264Z,72.16
2023-02-16T00:35:25.448Z,72.07
2023-02-16T00:40:27.772Z,71.83
2023-02-16T00:45:30.540Z,71.80
2023-02-16T00:50:34.652Z,72.13
2023-02-16T00:55:37.036Z,72.11
2023-02-16T01:00:45.018Z,72.28
2023-02-16T01:05:47.879Z,72.16
2023-02-16T01:11:08.246Z,72.23
2023-02-16T01:16:17.204Z,72.46
2023-02-16T01:21:19.747Z,72.49
2023-02-16T01:26:22.198Z,72.33
2023-02-16T01:31:24.437Z,72.44
2023-02-16T01:36:37.357Z,72.69
2023-02-16T01:42:02.880Z,72.79
2023-02-16T01:47:24.411Z,72.37
2023-02-16T01:52:34.899Z,72.65
2023-02-16T01:58:05.241Z,72.80
2023-02-16T02:03:30.494Z,72.67
2023-02-16T02:08:55.833Z,72.83
2023-02-16T02:14:13.477Z,72.79
2023-02-16T02:19:16.503Z,72.59
2023-02-16T02:24:51.231Z,73.08
2023-02-16T02:30:09.253Z,72.84
2023-02-16T02:35:38.847Z,72.79
2023-02-16T02:41:07.412Z,72.72
2023-02-16T02:46:26.903Z,72.72
2023-02-16T02:51:29.284Z,72.44
2023-02-16T02:56:55.510Z,72.46
2023-02-16T03:01:59.997Z,72.60
2023-02-16T03:07:02.964Z,72.57
2023-02-16T03:12:24.519Z,72.89
2023-02-16T03:17:52.238Z,72.97
2023-02-16T03:23:12.896Z,73.01
2023-02-16T03:28:35.169Z,72.95
2023-02-16T03:33:37.536Z,72.96
2023-02-16T03:38:40.044Z,73.07
2023-02-16T03:43:42.246Z,73.12
2023-02-16T03:48:44.439Z,73.13
2023-02-16T03:53:46.661Z,73.07
2023-02-16T03:58:48.885Z,72.98
2023-02-16T04:03:51.179Z,73.24
2023-02-16T04:08:53.427Z,73.09
2023-02-16T04:13:55.690Z,73.42
2023-02-16T04:18:57.898Z,73.26
2023-02-16T04:24:00.125Z,73.43
2023-02-16T04:29:02.367Z,73.55
2023-02-16T04:34:05.700Z,73.32
2023-02-16T04:39:07.908Z,73.45
2023-02-16T04:44:10.242Z,73.42
2023-02-16T04:49:12.563Z,73.53
2023-02-16T04:54:15.043Z,73.51
2023-02-16T04:59:17.257Z,73.64
2023-02-16T05:04:19.553Z,73.77
2023-02-16T05:09:21.840Z,73.55
2023-02-16T05:14:47.208Z,73.79
2023-02-16T05:19:58.118Z,73.98
2023-02-16T05:25:01.502Z,73.63
2023-02-16T05:30:04.314Z,73.90
2023-02-16T05:35:07.006Z,73.84
2023-02-16T05:40:11.161Z,73.79
2023-02-16T05:45:13.428Z,73.80
2023-02-16T05:50:15.729Z,74.09
2023-02-16T05:55:18.037Z,74.08
2023-02-16T06:00:20.483Z,74.12
2023-02-16T06:05:22.756Z,74.00
2023-02-16T06:10:24.972Z,74.07
2023-02-16T06:15:27.165Z,73.95
2023-02-16T06:20:29.413Z,73.91
2023-02-16T06:25:31.672Z,74.23
2023-02-16T06:30:36.488Z,74.10
2023-02-16T06:35:38.946Z,73.98
2023-02-16T06:40:41.225Z,74.18
2023-02-16T06:45:43.527Z,74.08
2023-02-16T06:50:45.722Z,74.29
2023-02-16T06:55:50.486Z,74.31
2023-02-16T07:00:55.545Z,74.21
2023-02-16T07:06:00.189Z,74.13
2023-02-16T07:11:03.597Z,74.11
2023-02-16T07:16:07.551Z,74.04
2023-02-16T07:21:09.754Z,74.06
2023-02-16T07:26:12.177Z,74.22
2023-02-16T07:31:16.194Z,73.83
2023-02-16T07:36:18.459Z,73.92
2023-02-16T07:41:20.902Z,73.95
2023-02-16T07:46:23.113Z,73.73
2023-02-16T07:51:27.059Z,73.56
2023-02-16T07:56:31.402Z,73.94
2023-02-16T08:01:34.498Z,73.58
2023-02-16T08:06:36.773Z,73.55
2023-02-16T08:11:39.383Z,73.40
2023-02-16T08:16:42.045Z,73.40
2023-02-16T08:21:49.526Z,73.41
2023-02-16T08:26:55.063Z,73.05
2023-02-16T08:31:59.713Z,72.83
2023-02-16T08:37:02.515Z,72.91
2023-02-16T08:42:05.481Z,72.76
2023-02-16T08:47:09.666Z,72.80
2023-02-16T08:52:12.991Z,72.65
2023-02-16T08:57:16.103Z,72.63
2023-02-16T09:02:18.383Z,72.35
2023-02-16T09:07:23.241Z,72.22
2023-02-16T09:12:25.822Z,72.19
2023-02-16T09:17:29.244Z,72.11
2023-02-16T09:22:31.918Z,72.13
2023-02-16T09:27:35.000Z,72.10
2023-02-16T09:32:37.215Z,72.08
2023-02-16T09:37:39.388Z,72.13
2023-02-16T09:42:44.996Z,71.87
2023-02-16T09:47:49.360Z,71.75
2023-02-16T09:53:08.917Z,71.63
2023-02-16T09:58:18.997Z,71.63
2023-02-16T10:03:39.898Z,71.58
2023-02-16T10:08:46.000Z,70.96
2023-02-16T10:13:54.360Z,70.49
2023-02-16T10:18:57.183Z,70.88
2023-02-16T10:24:04.005Z,70.34
2023-02-16T10:29:23.556Z,69.82
2023-02-16T10:34:31.708Z,70.23
2023-02-16T10:39:38.939Z,69.45
2023-02-16T10:44:46.758Z,69.55
2023-02-16T10:49:49.810Z,69.60
2023-02-16T10:54:52.274Z,69.28
2023-02-16T10:59:56.079Z,68.94
2023-02-16T11:04:59.227Z,69.11
2023-02-16T11:10:19.600Z,68.12
2023-02-16T11:15:27.191Z,68.60
2023-02-16T11:20:35.477Z,68.57
2023-02-16T11:25:38.246Z,68.94
2023-02-16T11:30:41.773Z,68.75
2023-02-16T11:35:45.212Z,68.78
2023-02-16T11:40:51.842Z,68.22
2023-02-16T11:46:16.932Z,67.64
2023-02-16T11:51:39.293Z,67.79
2023-02-16T11:56:41.641Z,68.62
2023-02-16T12:02:02.778Z,67.90
2023-02-16T12:07:15.661Z,68.48
2023-02-16T12:12:36.545Z,66.96
2023-02-16T12:18:04.506Z,67.75
2023-02-16T12:23:29.212Z,67.02
2023-02-16T12:28:51.326Z,66.99
2023-02-16T12:34:28.821Z,66.52
2023-02-16T12:39:59.033Z,66.70
2023-02-16T12:45:09.904Z,66.72
2023-02-16T12:50:31.763Z,66.25
2023-02-16T12:55:33.885Z,67.39
2023-02-16T13:00:53.615Z,66.36
2023-02-16T13:06:18.325Z,66.35
2023-02-16T13:11:48.942Z,66.30
2023-02-16T13:16:58.203Z,66.69
2023-02-16T13:22:13.063Z,67.21
2023-02-16T13:27:24.556Z,66.42
2023-02-16T13:32:45.770Z,66.15
2023-02-16T13:38:09.918Z,66.15
2023-02-16T13:43:20.635Z,66.72
2023-02-16T13:48:55.205Z,66.74
2023-02-16T13:54:00.459Z,66.46
2023-02-16T13:59:35.173Z,66.03
2023-02-16T14:04:37.371Z,66.72
2023-02-16T14:09:39.787Z,66.86
2023-02-16T14:14:41.950Z,66.75
2023-02-16T14:19:53.250Z,66.05
2023-02-16T14:24:57.905Z,66.62
2023-02-16T14:30:01.867Z,66.20
2023-02-16T14:35:14.033Z,66.33
2023-02-16T14:40:36.352Z,66.61
2023-02-16T14:45:44.909Z,66.54
2023-02-16T14:51:29.151Z,66.19
2023-02-16T14:56:55.833Z,66.48
2023-02-16T15:01:58.426Z,66.76
2023-02-16T15:07:03.588Z,66.76
2023-02-16T15:12:24.103Z,66.54
2023-02-16T15:17:35.832Z,66.19
2023-02-16T15:22:44.952Z,66.53
2023-02-16T15:28:01.555Z,66.06
2023-02-16T15:33:07.093Z,66.08
2023-02-16T15:38:21.452Z,65.53
2023-02-16T15:43:44.373Z,65.95
2023-02-16T15:48:46.971Z,66.30
2023-02-16T15:53:53.335Z,66.20
2023-02-16T15:59:01.964Z,66.27
2023-02-16T16:04:20.027Z,65.95
2023-02-16T16:09:28.949Z,66.32
2023-02-16T16:14:34.226Z,66.68
2023-02-16T16:19:38.506Z,66.69
2023-02-16T16:24:41.118Z,66.76
2023-02-16T16:29:45.722Z,66.61
2023-02-16T16:34:48.170Z,66.68
2023-02-16T16:40:24.108Z,66.29
2023-02-16T16:45:39.450Z,66.63
2023-02-16T16:50:42.787Z,66.98
2023-02-16T16:55:45.041Z,67.07
2023-02-16T17:00:47.498Z,67.14
2023-02-16T17:05:49.636Z,67.38
2023-02-16T17:10:52.274Z,67.51
2023-02-16T17:15:57.932Z,67.61
2023-02-16T17:21:00.197Z,67.72
2023-02-16T17:26:02.973Z,67.89
2023-02-16T17:31:15.534Z,68.15
2023-02-16T17:36:21.670Z,68.11
2023-02-16T17:41:26.365Z,68.21
2023-02-16T17:46:31.579Z,68.45
2023-02-16T17:51:36.600Z,69.01
2023-02-16T17:56:42.108Z,68.97
2023-02-16T18:01:45.370Z,68.88
2023-02-16T18:06:47.934Z,69.10
2023-02-16T18:11:50.998Z,68.96
2023-02-16T18:16:53.593Z,69.10
2023-02-16T18:21:56.183Z,68.90
2023-02-16T18:26:59.449Z,68.47
2023-02-16T18:32:03.321Z,68.22
2023-02-16T18:37:05.525Z,68.12
2023-02-16T18:42:07.968Z,68.02
2023-02-16T18:47:10.342Z,67.78
2023-02-16T18:52:15.428Z,67.44
2023-02-16T18:57:17.847Z,67.54
2023-02-16T19:02:21.242Z,67.26
2023-02-16T19:07:23.561Z,67.03
2023-02-16T19:12:25.938Z,66.96
2023-02-16T19:17:28.150Z,67.04
2023-02-16T19:22:30.321Z,66.95
2023-02-16T19:27:32.889Z,67.07
2023-02-16T19:32:35.296Z,67.19
2023-02-16T19:37:37.734Z,67.10
2023-02-16T19:42:40.090Z,67.12
2023-02-16T19:47:42.768Z,67.21
2023-02-16T19:52:45.982Z,67.02
2023-02-16T19:57:48.266Z,66.80
2023-02-16T20:02:53.803Z,67.05
2023-02-16T20:07:56.133Z,67.05
2023-02-16T20:12:58.824Z,66.89
2023-02-16T20:18:01.248Z,67.03
2023-02-16T20:23:03.533Z,67.06
2023-02-16T20:28:05.811Z,66.98
2023-02-16T20:33:08.216Z,67.18
2023-02-16T20:38:10.460Z,67.07
2023-02-16T20:43:13.982Z,67.08
2023-02-16T20:48:16.726Z,67.12
2023-02-16T20:53:18.962Z,66.98
2023-02-16T20:58:21.250Z,67.03
2023-02-16T21:03:24.214Z,67.05
2023-02-16T21:08:29.218Z,67.14
2023-02-16T21:13:31.522Z,67.20
2023-02-16T21:18:34.259Z,67.05
2023-02-16T21:23:36.551Z,67.02
2023-02-16T21:28:39.136Z,67.25
2023-02-16T21:33:41.428Z,67.28
2023-02-16T21:38:44.255Z,67.39
2023-02-16T21:43:46.467Z,67.22
2023-02-16T21:48:49.950Z,67.44
2023-02-16T21:53:53.556Z,67.67
2023-02-16T21:58:55.856Z,67.53
2023-02-16T22:03:59.815Z,67.68
2023-02-16T22:09:05.438Z,67.69
2023-02-16T22:14:07.615Z,67.63
2023-02-16T22:19:13.854Z,67.72
2023-02-16T22:24:18.212Z,67.67
2023-02-16T22:29:20.511Z,67.70
2023-02-16T22:34:22.920Z,67.74
2023-02-16T22:39:25.116Z,67.85
2023-02-16T22:44:27.397Z,68.07
2023-02-16T22:49:29.718Z,67.87
2023-02-16T22:54:31.987Z,68.22
2023-02-16T22:59:34.435Z,68.19
2023-02-16T23:04:36.617Z,68.18
2023-02-16T23:09:38.901Z,68.34
2023-02-16T23:14:41.213Z,68.31
2023-02-16T23:19:43.743Z,68.38
2023-02-16T23:25:05.910Z,68.45
2023-02-16T23:30:08.459Z,68.54
2023-02-16T23:35:10.943Z,68.30
2023-02-16T23:40:13.397Z,68.40
2023-02-16T23:45:15.693Z,68.24
2023-02-16T23:50:18.020Z,68.48
2023-02-16T23:55:20.248Z,68.38
